sensor_id;sensor_type;location;lat;lon;timestamp;pressure;altitude;pressure_sealevel;temperature;humidity
58373;BME280;44177;43.356;27.672;2023-12-29T00:02:15;98558.41;;;6.08;75.36
58373;BME280;44177;43.356;27.672;2023-12-29T00:04:41;98588.50;;;6.06;75.35
58373;BME280;44177;43.356;27.672;2023-12-29T00:07:07;98606.19;;;6.04;75.80
58373;BME280;44177;43.356;27.672;2023-12-29T00:09:33;98595.16;;;5.86;76.31
58373;BME280;44177;43.356;27.672;2023-12-29T00:12:06;98608.56;;;6.05;75.91
58373;BME280;44177;43.356;27.672;2023-12-29T00:14:31;98605.25;;;6.08;75.76
58373;BME280;44177;43.356;27.672;2023-12-29T00:16:57;98595.41;;;5.98;75.97
58373;BME280;44177;43.356;27.672;2023-12-29T00:19:23;98586.41;;;5.89;76.31
58373;BME280;44177;43.356;27.672;2023-12-29T00:21:48;98607.28;;;6.03;76.45
58373;BME280;44177;43.356;27.672;2023-12-29T00:24:13;98613.41;;;5.94;76.78
58373;BME280;44177;43.356;27.672;2023-12-29T00:26:39;98592.75;;;5.84;76.79
58373;BME280;44177;43.356;27.672;2023-12-29T00:29:04;98604.78;;;5.92;76.54
58373;BME280;44177;43.356;27.672;2023-12-29T00:31:31;98616.28;;;5.61;76.15
58373;BME280;44177;43.356;27.672;2023-12-29T00:33:57;98622.31;;;5.44;76.94
58373;BME280;44177;43.356;27.672;2023-12-29T00:36:23;98593.66;;;5.15;77.29
58373;BME280;44177;43.356;27.672;2023-12-29T00:38:48;98611.97;;;5.04;77.60
58373;BME280;44177;43.356;27.672;2023-12-29T00:41:14;98622.50;;;4.92;78.18
58373;BME280;44177;43.356;27.672;2023-12-29T00:43:39;98616.75;;;4.80;78.31
58373;BME280;44177;43.356;27.672;2023-12-29T00:46:05;98612.63;;;4.68;78.27
58373;BME280;44177;43.356;27.672;2023-12-29T00:48:31;98615.59;;;4.53;78.44
58373;BME280;44177;43.356;27.672;2023-12-29T00:50:57;98616.84;;;4.41;79.55
58373;BME280;44177;43.356;27.672;2023-12-29T00:53:22;98620.97;;;4.39;80.58
58373;BME280;44177;43.356;27.672;2023-12-29T00:55:48;98606.09;;;4.22;80.49
58373;BME280;44177;43.356;27.672;2023-12-29T00:58:13;98625.72;;;4.28;80.74
58373;BME280;44177;43.356;27.672;2023-12-29T01:00:39;98614.78;;;4.19;80.91
58373;BME280;44177;43.356;27.672;2023-12-29T01:03:05;98616.59;;;4.05;81.32
58373;BME280;44177;43.356;27.672;2023-12-29T01:05:30;98616.53;;;3.91;81.88
58373;BME280;44177;43.356;27.672;2023-12-29T01:07:56;98583.94;;;3.68;82.73
58373;BME280;44177;43.356;27.672;2023-12-29T01:10:21;98606.56;;;3.91;83.05
58373;BME280;44177;43.356;27.672;2023-12-29T01:12:47;98608.44;;;3.91;83.49
58373;BME280;44177;43.356;27.672;2023-12-29T01:15:13;98615.22;;;3.88;83.68
58373;BME280;44177;43.356;27.672;2023-12-29T01:17:38;98594.44;;;3.70;83.92
58373;BME280;44177;43.356;27.672;2023-12-29T01:20:04;98597.41;;;3.68;85.87
58373;BME280;44177;43.356;27.672;2023-12-29T01:22:30;98599.09;;;3.64;86.95
58373;BME280;44177;43.356;27.672;2023-12-29T01:24:55;98592.19;;;3.77;86.38
58373;BME280;44177;43.356;27.672;2023-12-29T01:27:21;98592.84;;;3.88;86.52
58373;BME280;44177;43.356;27.672;2023-12-29T01:29:46;98584.66;;;3.93;86.37
58373;BME280;44177;43.356;27.672;2023-12-29T01:32:12;98572.47;;;3.76;85.90
58373;BME280;44177;43.356;27.672;2023-12-29T01:34:37;98581.63;;;3.81;85.60
58373;BME280;44177;43.356;27.672;2023-12-29T01:37:03;98580.53;;;3.82;85.33
58373;BME280;44177;43.356;27.672;2023-12-29T01:39:33;98549.50;;;3.98;83.04
58373;BME280;44177;43.356;27.672;2023-12-29T01:41:59;98554.00;;;4.22;81.61
58373;BME280;44177;43.356;27.672;2023-12-29T01:44:24;98536.66;;;4.23;80.45
58373;BME280;44177;43.356;27.672;2023-12-29T01:46:51;98563.13;;;4.40;80.29
58373;BME280;44177;43.356;27.672;2023-12-29T01:49:17;98550.69;;;4.25;80.18
58373;BME280;44177;43.356;27.672;2023-12-29T01:51:44;98565.22;;;4.29;80.03
58373;BME280;44177;43.356;27.672;2023-12-29T01:54:12;98570.63;;;4.29;80.02
58373;BME280;44177;43.356;27.672;2023-12-29T01:56:38;98549.13;;;4.38;79.17
58373;BME280;44177;43.356;27.672;2023-12-29T01:59:05;98562.56;;;4.57;77.54
58373;BME280;44177;43.356;27.672;2023-12-29T02:01:31;98551.06;;;4.65;76.54
58373;BME280;44177;43.356;27.672;2023-12-29T02:03:57;98533.56;;;4.77;75.96
58373;BME280;44177;43.356;27.672;2023-12-29T02:06:23;98541.97;;;4.89;75.54
58373;BME280;44177;43.356;27.672;2023-12-29T02:08:50;98556.28;;;4.89;75.31
58373;BME280;44177;43.356;27.672;2023-12-29T02:11:17;98554.47;;;4.99;74.88
58373;BME280;44177;43.356;27.672;2023-12-29T02:13:42;98548.88;;;5.09;74.12
58373;BME280;44177;43.356;27.672;2023-12-29T02:16:13;98548.50;;;5.16;73.58
58373;BME280;44177;43.356;27.672;2023-12-29T02:18:41;98541.75;;;5.27;73.29
58373;BME280;44177;43.356;27.672;2023-12-29T02:21:09;98534.66;;;5.31;72.69
58373;BME280;44177;43.356;27.672;2023-12-29T02:23:35;98536.50;;;5.45;72.64
58373;BME280;44177;43.356;27.672;2023-12-29T02:26:04;98529.19;;;5.45;72.67
58373;BME280;44177;43.356;27.672;2023-12-29T02:28:34;98474.97;;;5.14;72.76
58373;BME280;44177;43.356;27.672;2023-12-29T02:31:08;98523.50;;;5.47;72.78
58373;BME280;44177;43.356;27.672;2023-12-29T02:33:38;98505.28;;;5.38;72.92
58373;BME280;44177;43.356;27.672;2023-12-29T02:36:06;98529.50;;;5.44;73.84
58373;BME280;44177;43.356;27.672;2023-12-29T02:38:32;98540.00;;;5.45;74.32
58373;BME280;44177;43.356;27.672;2023-12-29T02:40:59;98534.31;;;5.47;74.65
58373;BME280;44177;43.356;27.672;2023-12-29T02:43:25;98525.28;;;5.51;74.45
58373;BME280;44177;43.356;27.672;2023-12-29T02:45:50;98521.88;;;5.46;74.02
58373;BME280;44177;43.356;27.672;2023-12-29T02:48:16;98518.66;;;5.44;74.58
58373;BME280;44177;43.356;27.672;2023-12-29T02:50:41;98515.19;;;5.43;74.14
58373;BME280;44177;43.356;27.672;2023-12-29T02:53:08;98462.84;;;5.11;73.50
58373;BME280;44177;43.356;27.672;2023-12-29T02:55:33;98515.84;;;5.49;72.84
58373;BME280;44177;43.356;27.672;2023-12-29T02:57:59;98509.47;;;5.45;72.79
58373;BME280;44177;43.356;27.672;2023-12-29T03:00:24;98509.13;;;5.46;72.47
58373;BME280;44177;43.356;27.672;2023-12-29T03:02:50;98514.38;;;5.43;72.52
58373;BME280;44177;43.356;27.672;2023-12-29T03:05:15;98519.50;;;5.30;72.68
58373;BME280;44177;43.356;27.672;2023-12-29T03:07:41;98519.22;;;5.18;73.09
58373;BME280;44177;43.356;27.672;2023-12-29T03:10:07;98475.59;;;4.83;73.19
58373;BME280;44177;43.356;27.672;2023-12-29T03:12:33;98518.22;;;5.14;73.92
58373;BME280;44177;43.356;27.672;2023-12-29T03:14:58;98497.69;;;5.13;74.23
58373;BME280;44177;43.356;27.672;2023-12-29T03:17:24;98512.91;;;5.22;74.58
58373;BME280;44177;43.356;27.672;2023-12-29T03:19:50;98499.41;;;5.09;75.17
58373;BME280;44177;43.356;27.672;2023-12-29T03:22:15;98514.00;;;5.21;75.36
58373;BME280;44177;43.356;27.672;2023-12-29T03:24:41;98514.63;;;5.18;75.44
58373;BME280;44177;43.356;27.672;2023-12-29T03:27:07;98511.41;;;5.16;75.65
58373;BME280;44177;43.356;27.672;2023-12-29T03:29:33;98519.66;;;5.11;75.85
58373;BME280;44177;43.356;27.672;2023-12-29T03:31:58;98519.91;;;5.10;75.97
58373;BME280;44177;43.356;27.672;2023-12-29T03:34:24;98503.22;;;4.94;75.94
58373;BME280;44177;43.356;27.672;2023-12-29T03:36:49;98519.94;;;4.82;76.67
58373;BME280;44177;43.356;27.672;2023-12-29T03:39:15;98514.50;;;4.54;78.22
58373;BME280;44177;43.356;27.672;2023-12-29T03:41:40;98511.69;;;4.31;78.95
58373;BME280;44177;43.356;27.672;2023-12-29T03:44:06;98512.97;;;4.20;80.45
58373;BME280;44177;43.356;27.672;2023-12-29T03:46:31;98502.69;;;4.22;80.87
58373;BME280;44177;43.356;27.672;2023-12-29T03:48:58;98506.88;;;4.28;80.55
58373;BME280;44177;43.356;27.672;2023-12-29T03:51:23;98515.13;;;4.51;80.16
58373;BME280;44177;43.356;27.672;2023-12-29T03:53:48;98508.34;;;4.67;79.60
58373;BME280;44177;43.356;27.672;2023-12-29T03:56:15;98515.53;;;4.72;79.23
58373;BME280;44177;43.356;27.672;2023-12-29T03:58:42;98519.44;;;4.94;78.54
58373;BME280;44177;43.356;27.672;2023-12-29T04:01:14;98515.13;;;4.93;78.15
58373;BME280;44177;43.356;27.672;2023-12-29T04:03:41;98482.69;;;4.79;78.17
58373;BME280;44177;43.356;27.672;2023-12-29T04:06:07;98517.25;;;4.96;77.91
58373;BME280;44177;43.356;27.672;2023-12-29T04:08:33;98516.16;;;4.97;77.53
58373;BME280;44177;43.356;27.672;2023-12-29T04:10:59;98503.03;;;4.76;77.14
58373;BME280;44177;43.356;27.672;2023-12-29T04:13:24;98510.56;;;4.93;78.08
58373;BME280;44177;43.356;27.672;2023-12-29T04:15:50;98495.13;;;4.94;77.65
58373;BME280;44177;43.356;27.672;2023-12-29T04:18:17;98510.19;;;5.22;76.64
58373;BME280;44177;43.356;27.672;2023-12-29T04:20:42;98514.09;;;5.30;75.71
58373;BME280;44177;43.356;27.672;2023-12-29T04:23:08;98515.66;;;5.45;74.59
58373;BME280;44177;43.356;27.672;2023-12-29T04:25:34;98503.00;;;5.54;73.14
58373;BME280;44177;43.356;27.672;2023-12-29T04:28:00;98494.97;;;5.63;72.06
58373;BME280;44177;43.356;27.672;2023-12-29T04:30:25;98517.97;;;5.75;71.63
58373;BME280;44177;43.356;27.672;2023-12-29T04:32:51;98506.84;;;5.76;71.05
58373;BME280;44177;43.356;27.672;2023-12-29T04:35:16;98505.31;;;5.84;70.41
58373;BME280;44177;43.356;27.672;2023-12-29T04:37:45;98494.31;;;5.80;69.79
58373;BME280;44177;43.356;27.672;2023-12-29T04:40:11;98510.19;;;5.96;69.34
58373;BME280;44177;43.356;27.672;2023-12-29T04:42:37;98520.44;;;5.99;69.28
58373;BME280;44177;43.356;27.672;2023-12-29T04:45:03;98516.00;;;6.03;69.01
58373;BME280;44177;43.356;27.672;2023-12-29T04:47:29;98506.06;;;5.98;68.78
58373;BME280;44177;43.356;27.672;2023-12-29T04:49:54;98521.91;;;6.05;68.81
58373;BME280;44177;43.356;27.672;2023-12-29T04:52:20;98517.47;;;6.09;68.35
58373;BME280;44177;43.356;27.672;2023-12-29T04:54:46;98501.75;;;5.97;68.26
58373;BME280;44177;43.356;27.672;2023-12-29T04:57:11;98521.50;;;5.98;67.89
58373;BME280;44177;43.356;27.672;2023-12-29T04:59:37;98509.66;;;6.08;67.23
58373;BME280;44177;43.356;27.672;2023-12-29T05:02:02;98528.84;;;6.20;67.20
58373;BME280;44177;43.356;27.672;2023-12-29T05:04:28;98530.44;;;6.21;67.05
58373;BME280;44177;43.356;27.672;2023-12-29T05:06:53;98533.47;;;6.20;66.87
58373;BME280;44177;43.356;27.672;2023-12-29T05:09:19;98509.59;;;6.22;66.60
58373;BME280;44177;43.356;27.672;2023-12-29T05:11:45;98511.44;;;6.12;66.30
58373;BME280;44177;43.356;27.672;2023-12-29T05:14:11;98521.56;;;6.29;66.09
58373;BME280;44177;43.356;27.672;2023-12-29T05:16:36;98532.72;;;6.28;66.25
58373;BME280;44177;43.356;27.672;2023-12-29T05:19:02;98525.19;;;6.25;65.90
58373;BME280;44177;43.356;27.672;2023-12-29T05:21:27;98489.75;;;6.12;65.42
58373;BME280;44177;43.356;27.672;2023-12-29T05:23:53;98527.69;;;6.44;65.14
58373;BME280;44177;43.356;27.672;2023-12-29T05:26:18;98526.31;;;6.46;64.92
58373;BME280;44177;43.356;27.672;2023-12-29T05:28:44;98533.78;;;6.50;64.91
58373;BME280;44177;43.356;27.672;2023-12-29T05:31:10;98529.81;;;6.47;64.94
58373;BME280;44177;43.356;27.672;2023-12-29T05:33:35;98508.25;;;6.42;64.33
58373;BME280;44177;43.356;27.672;2023-12-29T05:36:08;98531.25;;;6.53;64.42
58373;BME280;44177;43.356;27.672;2023-12-29T05:38:34;98501.91;;;6.46;63.78
58373;BME280;44177;43.356;27.672;2023-12-29T05:41:04;98522.38;;;6.61;63.83
58373;BME280;44177;43.356;27.672;2023-12-29T05:43:33;98492.47;;;6.44;63.84
58373;BME280;44177;43.356;27.672;2023-12-29T05:46:00;98515.34;;;6.60;64.13
58373;BME280;44177;43.356;27.672;2023-12-29T05:48:26;98512.38;;;6.71;63.72
58373;BME280;44177;43.356;27.672;2023-12-29T05:50:52;98515.88;;;6.71;64.09
58373;BME280;44177;43.356;27.672;2023-12-29T05:53:17;98514.28;;;6.70;64.30
58373;BME280;44177;43.356;27.672;2023-12-29T05:55:43;98488.72;;;6.62;64.19
58373;BME280;44177;43.356;27.672;2023-12-29T05:58:09;98510.00;;;6.78;64.20
58373;BME280;44177;43.356;27.672;2023-12-29T06:00:36;98467.28;;;6.43;64.39
58373;BME280;44177;43.356;27.672;2023-12-29T06:03:02;98511.44;;;6.75;64.24
58373;BME280;44177;43.356;27.672;2023-12-29T06:05:29;98511.44;;;6.84;63.95
58373;BME280;44177;43.356;27.672;2023-12-29T06:07:55;98526.50;;;6.99;63.79
58373;BME280;44177;43.356;27.672;2023-12-29T06:10:20;98527.19;;;7.14;63.63
58373;BME280;44177;43.356;27.672;2023-12-29T06:12:46;98494.00;;;7.25;62.60
58373;BME280;44177;43.356;27.672;2023-12-29T06:15:12;98513.84;;;7.87;60.77
58373;BME280;44177;43.356;27.672;2023-12-29T06:17:38;98495.25;;;8.25;58.97
58373;BME280;44177;43.356;27.672;2023-12-29T06:20:06;98496.59;;;8.96;56.22
58373;BME280;44177;43.356;27.672;2023-12-29T06:22:32;98511.50;;;10.25;52.56
58373;BME280;44177;43.356;27.672;2023-12-29T06:24:58;98513.09;;;10.85;50.35
58373;BME280;44177;43.356;27.672;2023-12-29T06:27:25;98478.25;;;11.19;48.62
58373;BME280;44177;43.356;27.672;2023-12-29T06:29:50;98499.75;;;12.14;46.81
58373;BME280;44177;43.356;27.672;2023-12-29T06:32:15;98513.25;;;12.84;44.86
58373;BME280;44177;43.356;27.672;2023-12-29T06:34:41;98511.13;;;13.45;43.80
58373;BME280;44177;43.356;27.672;2023-12-29T06:37:06;98515.34;;;14.60;41.13
58373;BME280;44177;43.356;27.672;2023-12-29T06:39:32;98508.38;;;15.39;39.04
58373;BME280;44177;43.356;27.672;2023-12-29T06:41:57;98510.56;;;16.55;37.37
58373;BME280;44177;43.356;27.672;2023-12-29T06:44:23;98500.50;;;17.26;35.84
58373;BME280;44177;43.356;27.672;2023-12-29T06:46:48;98500.31;;;17.60;35.00
58373;BME280;44177;43.356;27.672;2023-12-29T06:49:14;98479.72;;;18.82;33.09
58373;BME280;44177;43.356;27.672;2023-12-29T06:51:39;98496.13;;;19.83;31.59
58373;BME280;44177;43.356;27.672;2023-12-29T06:54:06;98496.75;;;20.27;30.18
58373;BME280;44177;43.356;27.672;2023-12-29T06:56:32;98511.66;;;19.48;31.29
58373;BME280;44177;43.356;27.672;2023-12-29T06:58:57;98512.91;;;18.97;31.72
58373;BME280;44177;43.356;27.672;2023-12-29T07:01:23;98512.41;;;19.67;30.91
58373;BME280;44177;43.356;27.672;2023-12-29T07:03:51;98480.72;;;19.82;30.92
58373;BME280;44177;43.356;27.672;2023-12-29T07:06:16;98507.19;;;21.18;29.13
58373;BME280;44177;43.356;27.672;2023-12-29T07:08:42;98493.38;;;20.58;29.24
58373;BME280;44177;43.356;27.672;2023-12-29T07:11:11;98510.13;;;20.96;28.98
58373;BME280;44177;43.356;27.672;2023-12-29T07:13:37;98512.06;;;20.46;29.68
58373;BME280;44177;43.356;27.672;2023-12-29T07:16:03;98513.19;;;19.60;30.57
58373;BME280;44177;43.356;27.672;2023-12-29T07:18:28;98496.69;;;18.55;31.69
58373;BME280;44177;43.356;27.672;2023-12-29T07:20:54;98504.19;;;18.62;32.24
58373;BME280;44177;43.356;27.672;2023-12-29T07:23:19;98504.19;;;17.52;33.48
58373;BME280;44177;43.356;27.672;2023-12-29T07:25:45;98521.38;;;16.79;34.94
58373;BME280;44177;43.356;27.672;2023-12-29T07:28:10;98504.69;;;16.23;36.09
58373;BME280;44177;43.356;27.672;2023-12-29T07:30:36;98520.44;;;16.60;35.61
58373;BME280;44177;43.356;27.672;2023-12-29T07:33:01;98456.09;;;16.83;34.96
58373;BME280;44177;43.356;27.672;2023-12-29T07:35:27;98505.91;;;17.82;33.78
58373;BME280;44177;43.356;27.672;2023-12-29T07:37:53;98509.75;;;16.55;35.66
58373;BME280;44177;43.356;27.672;2023-12-29T07:40:18;98517.34;;;16.27;36.15
58373;BME280;44177;43.356;27.672;2023-12-29T07:42:45;98520.69;;;16.48;36.35
58373;BME280;44177;43.356;27.672;2023-12-29T07:45:11;98513.63;;;15.52;38.09
58373;BME280;44177;43.356;27.672;2023-12-29T07:47:37;98500.44;;;15.07;38.56
58373;BME280;44177;43.356;27.672;2023-12-29T07:50:03;98517.81;;;15.69;37.68
58373;BME280;44177;43.356;27.672;2023-12-29T07:52:30;98504.63;;;15.82;37.58
58373;BME280;44177;43.356;27.672;2023-12-29T07:54:55;98504.50;;;15.44;38.88
58373;BME280;44177;43.356;27.672;2023-12-29T07:57:21;98502.16;;;15.15;39.18
58373;BME280;44177;43.356;27.672;2023-12-29T07:59:46;98526.81;;;14.65;40.50
58373;BME280;44177;43.356;27.672;2023-12-29T08:02:12;98516.88;;;14.14;40.79
58373;BME280;44177;43.356;27.672;2023-12-29T08:04:37;98527.81;;;15.00;40.29
58373;BME280;44177;43.356;27.672;2023-12-29T08:07:04;98527.22;;;15.98;38.25
58373;BME280;44177;43.356;27.672;2023-12-29T08:09:29;98493.00;;;15.95;37.40
58373;BME280;44177;43.356;27.672;2023-12-29T08:11:55;98517.75;;;15.65;38.37
58373;BME280;44177;43.356;27.672;2023-12-29T08:14:21;98534.66;;;15.67;38.80
58373;BME280;44177;43.356;27.672;2023-12-29T08:16:47;98532.88;;;15.52;39.12
58373;BME280;44177;43.356;27.672;2023-12-29T08:19:12;98519.03;;;14.91;39.51
58373;BME280;44177;43.356;27.672;2023-12-29T08:21:40;98545.31;;;14.68;40.37
58373;BME280;44177;43.356;27.672;2023-12-29T08:24:05;98546.53;;;15.44;40.23
58373;BME280;44177;43.356;27.672;2023-12-29T08:26:31;98521.59;;;16.21;37.82
58373;BME280;44177;43.356;27.672;2023-12-29T08:28:56;98495.78;;;17.27;35.81
58373;BME280;44177;43.356;27.672;2023-12-29T08:31:22;98506.47;;;18.20;33.91
58373;BME280;44177;43.356;27.672;2023-12-29T08:33:51;98501.47;;;20.27;31.86
58373;BME280;44177;43.356;27.672;2023-12-29T08:36:20;98521.34;;;21.27;30.06
58373;BME280;44177;43.356;27.672;2023-12-29T08:38:46;98483.72;;;21.64;28.85
58373;BME280;44177;43.356;27.672;2023-12-29T08:41:13;98525.19;;;21.40;29.02
58373;BME280;44177;43.356;27.672;2023-12-29T08:43:39;98509.50;;;22.27;28.16
58373;BME280;44177;43.356;27.672;2023-12-29T08:46:04;98520.97;;;22.87;27.25
58373;BME280;44177;43.356;27.672;2023-12-29T08:48:30;98535.16;;;23.20;26.86
58373;BME280;44177;43.356;27.672;2023-12-29T08:50:55;98523.94;;;23.68;26.23
58373;BME280;44177;43.356;27.672;2023-12-29T08:53:21;98529.59;;;24.94;25.51
58373;BME280;44177;43.356;27.672;2023-12-29T08:55:46;98523.06;;;24.68;25.27
58373;BME280;44177;43.356;27.672;2023-12-29T08:58:12;98512.84;;;25.73;24.12
58373;BME280;44177;43.356;27.672;2023-12-29T09:00:38;98516.16;;;27.14;23.02
58373;BME280;44177;43.356;27.672;2023-12-29T09:03:03;98492.78;;;25.62;23.26
58373;BME280;44177;43.356;27.672;2023-12-29T09:05:29;98514.97;;;25.82;23.84
58373;BME280;44177;43.356;27.672;2023-12-29T09:07:54;98482.78;;;26.71;23.10
58373;BME280;44177;43.356;27.672;2023-12-29T09:10:20;98510.69;;;24.85;24.58
58373;BME280;44177;43.356;27.672;2023-12-29T09:12:46;98498.50;;;24.96;25.19
58373;BME280;44177;43.356;27.672;2023-12-29T09:15:12;98506.84;;;25.12;25.00
58373;BME280;44177;43.356;27.672;2023-12-29T09:17:37;98503.69;;;26.28;23.56
58373;BME280;44177;43.356;27.672;2023-12-29T09:20:03;98493.63;;;26.43;23.50
58373;BME280;44177;43.356;27.672;2023-12-29T09:22:29;98480.47;;;25.89;23.72
58373;BME280;44177;43.356;27.672;2023-12-29T09:24:55;98484.47;;;25.45;24.85
58373;BME280;44177;43.356;27.672;2023-12-29T09:27:21;98496.31;;;24.87;24.98
58373;BME280;44177;43.356;27.672;2023-12-29T09:29:46;98477.25;;;26.03;23.77
58373;BME280;44177;43.356;27.672;2023-12-29T09:32:12;98468.19;;;25.57;24.61
58373;BME280;44177;43.356;27.672;2023-12-29T09:34:37;98484.34;;;25.78;24.11
58373;BME280;44177;43.356;27.672;2023-12-29T09:37:03;98486.66;;;26.09;24.00
58373;BME280;44177;43.356;27.672;2023-12-29T09:39:28;98488.97;;;25.98;24.62
58373;BME280;44177;43.356;27.672;2023-12-29T09:41:57;98480.66;;;25.81;24.67
58373;BME280;44177;43.356;27.672;2023-12-29T09:44:24;98486.81;;;24.68;25.74
58373;BME280;44177;43.356;27.672;2023-12-29T09:46:54;98469.28;;;25.30;25.58
58373;BME280;44177;43.356;27.672;2023-12-29T09:49:21;98483.22;;;25.46;25.30
58373;BME280;44177;43.356;27.672;2023-12-29T09:51:47;98474.88;;;25.89;25.35
58373;BME280;44177;43.356;27.672;2023-12-29T09:54:13;98465.66;;;26.30;24.52
58373;BME280;44177;43.356;27.672;2023-12-29T09:56:41;98443.97;;;26.09;23.93
58373;BME280;44177;43.356;27.672;2023-12-29T09:59:09;98387.78;;;25.77;24.21
58373;BME280;44177;43.356;27.672;2023-12-29T10:01:36;98410.56;;;27.36;23.03
58373;BME280;44177;43.356;27.672;2023-12-29T10:04:02;98450.06;;;27.73;23.03
58373;BME280;44177;43.356;27.672;2023-12-29T10:06:31;98454.53;;;27.62;22.99
58373;BME280;44177;43.356;27.672;2023-12-29T10:09:02;98449.41;;;27.69;22.60
58373;BME280;44177;43.356;27.672;2023-12-29T10:11:30;98445.97;;;27.65;23.52
58373;BME280;44177;43.356;27.672;2023-12-29T10:14:03;98409.13;;;26.61;24.28
58373;BME280;44177;43.356;27.672;2023-12-29T10:16:42;98370.09;;;26.58;23.93
58373;BME280;44177;43.356;27.672;2023-12-29T10:24:45;98442.41;;;28.68;22.04
58373;BME280;44177;43.356;27.672;2023-12-29T10:27:12;98432.53;;;28.14;22.42
58373;BME280;44177;43.356;27.672;2023-12-29T10:29:38;98435.16;;;28.49;22.45
58373;BME280;44177;43.356;27.672;2023-12-29T10:32:04;98435.91;;;29.27;22.00
58373;BME280;44177;43.356;27.672;2023-12-29T10:34:30;98409.59;;;28.47;21.71
58373;BME280;44177;43.356;27.672;2023-12-29T10:37:00;98425.47;;;29.19;21.47
58373;BME280;44177;43.356;27.672;2023-12-29T10:39:35;98437.44;;;28.82;21.37
58373;BME280;44177;43.356;27.672;2023-12-29T10:42:06;98435.31;;;28.45;22.58
58373;BME280;44177;43.356;27.672;2023-12-29T10:44:36;98394.38;;;26.96;23.30
58373;BME280;44177;43.356;27.672;2023-12-29T10:47:09;98435.47;;;27.34;23.84
58373;BME280;44177;43.356;27.672;2023-12-29T10:49:35;98423.22;;;26.71;24.55
58373;BME280;44177;43.356;27.672;2023-12-29T10:52:11;98395.31;;;26.93;24.08
58373;BME280;44177;43.356;27.672;2023-12-29T10:54:38;98402.66;;;26.52;24.15
58373;BME280;44177;43.356;27.672;2023-12-29T10:57:03;98419.34;;;26.42;24.90
58373;BME280;44177;43.356;27.672;2023-12-29T10:59:29;98428.19;;;26.15;24.43
58373;BME280;44177;43.356;27.672;2023-12-29T11:01:55;98394.44;;;25.41;26.26
58373;BME280;44177;43.356;27.672;2023-12-29T11:04:24;98410.09;;;25.22;25.96
58373;BME280;44177;43.356;27.672;2023-12-29T11:06:49;98407.59;;;25.11;26.82
58373;BME280;44177;43.356;27.672;2023-12-29T11:09:29;98419.84;;;24.51;27.38
58373;BME280;44177;43.356;27.672;2023-12-29T11:11:59;98361.75;;;24.33;27.37
58373;BME280;44177;43.356;27.672;2023-12-29T11:14:25;98417.56;;;24.13;27.58
58373;BME280;44177;43.356;27.672;2023-12-29T11:16:52;98417.75;;;24.39;27.68
58373;BME280;44177;43.356;27.672;2023-12-29T11:19:18;98420.81;;;23.91;28.08
58373;BME280;44177;43.356;27.672;2023-12-29T11:21:44;98400.91;;;23.12;28.97
58373;BME280;44177;43.356;27.672;2023-12-29T11:24:10;98411.28;;;22.88;29.25
58373;BME280;44177;43.356;27.672;2023-12-29T11:26:36;98387.34;;;22.47;30.12
58373;BME280;44177;43.356;27.672;2023-12-29T11:29:03;98401.19;;;22.23;30.48
58373;BME280;44177;43.356;27.672;2023-12-29T11:31:31;98412.31;;;22.23;30.79
58373;BME280;44177;43.356;27.672;2023-12-29T11:34:02;98411.09;;;21.97;31.07
58373;BME280;44177;43.356;27.672;2023-12-29T11:36:32;98377.22;;;21.82;31.19
58373;BME280;44177;43.356;27.672;2023-12-29T11:42:19;98387.03;;;21.55;31.88
58373;BME280;44177;43.356;27.672;2023-12-29T11:44:46;98390.41;;;21.39;32.07
58373;BME280;44177;43.356;27.672;2023-12-29T11:47:37;98394.56;;;21.24;32.53
58373;BME280;44177;43.356;27.672;2023-12-29T11:50:03;98411.53;;;20.95;32.79
58373;BME280;44177;43.356;27.672;2023-12-29T11:52:36;98397.19;;;21.00;32.70
58373;BME280;44177;43.356;27.672;2023-12-29T11:55:14;98402.69;;;20.62;33.33
58373;BME280;44177;43.356;27.672;2023-12-29T11:57:40;98401.31;;;20.85;32.96
58373;BME280;44177;43.356;27.672;2023-12-29T12:00:07;98397.66;;;20.46;33.19
58373;BME280;44177;43.356;27.672;2023-12-29T12:02:33;98388.84;;;20.58;33.35
58373;BME280;44177;43.356;27.672;2023-12-29T12:04:59;98365.38;;;20.25;33.48
58373;BME280;44177;43.356;27.672;2023-12-29T12:09:50;98391.47;;;20.27;33.92
58373;BME280;44177;43.356;27.672;2023-12-29T12:12:39;98392.19;;;20.35;34.12
58373;BME280;44177;43.356;27.672;2023-12-29T12:17:52;98380.38;;;20.31;33.69
58373;BME280;44177;43.356;27.672;2023-12-29T12:20:18;98373.88;;;20.48;33.19
58373;BME280;44177;43.356;27.672;2023-12-29T12:22:44;98390.69;;;20.72;33.06
58373;BME280;44177;43.356;27.672;2023-12-29T12:25:11;98381.38;;;20.97;32.67
58373;BME280;44177;43.356;27.672;2023-12-29T12:27:38;98380.56;;;21.00;31.99
58373;BME280;44177;43.356;27.672;2023-12-29T12:30:05;98388.75;;;20.69;32.62
58373;BME280;44177;43.356;27.672;2023-12-29T12:32:32;98384.13;;;20.55;32.85
58373;BME280;44177;43.356;27.672;2023-12-29T12:34:57;98383.34;;;20.55;33.08
58373;BME280;44177;43.356;27.672;2023-12-29T12:37:27;98383.31;;;20.58;32.42
58373;BME280;44177;43.356;27.672;2023-12-29T12:39:53;98383.22;;;20.16;33.20
58373;BME280;44177;43.356;27.672;2023-12-29T12:42:22;98385.56;;;20.25;32.81
58373;BME280;44177;43.356;27.672;2023-12-29T12:45:02;98387.03;;;19.84;33.14
58373;BME280;44177;43.356;27.672;2023-12-29T12:47:37;98401.22;;;19.86;33.75
58373;BME280;44177;43.356;27.672;2023-12-29T12:50:04;98394.03;;;20.00;33.67
58373;BME280;44177;43.356;27.672;2023-12-29T12:52:31;98387.81;;;19.78;34.20
58373;BME280;44177;43.356;27.672;2023-12-29T12:54:57;98369.44;;;19.35;34.61
58373;BME280;44177;43.356;27.672;2023-12-29T12:57:23;98402.28;;;19.18;34.75
58373;BME280;44177;43.356;27.672;2023-12-29T12:59:50;98391.31;;;18.93;34.85
58373;BME280;44177;43.356;27.672;2023-12-29T13:02:17;98398.81;;;18.63;35.88
58373;BME280;44177;43.356;27.672;2023-12-29T13:04:43;98408.28;;;18.44;36.01
58373;BME280;44177;43.356;27.672;2023-12-29T13:07:09;98394.06;;;18.10;36.37